sensor_id;sensor_type;location;lat;lon;timestamp;pressure;altitude;pressure_sealevel;temperature;humidity
72465;BME280;60471;52.150;4.508;2023-01-10T00:02:14;100889.97;;;8.69;70.55
72465;BME280;60471;52.150;4.508;2023-01-10T00:04:41;100914.19;;;8.99;70.15
72465;BME280;60471;52.150;4.508;2023-01-10T00:07:07;100903.66;;;8.77;70.53
72465;BME280;60471;52.150;4.508;2023-01-10T00:09:33;100908.22;;;8.95;69.99
72465;BME280;60471;52.150;4.508;2023-01-10T00:11:59;100910.41;;;8.84;70.07
72465;BME280;60471;52.150;4.508;2023-01-10T00:14:44;100915.03;;;8.78;70.66
72465;BME280;60471;52.150;4.508;2023-01-10T00:17:10;100923.75;;;8.80;70.04
72465;BME280;60471;52.150;4.508;2023-01-10T00:19:36;100918.31;;;8.84;70.12
72465;BME280;60471;52.150;4.508;2023-01-10T00:22:02;100927.84;;;9.09;68.80
72465;BME280;60471;52.150;4.508;2023-01-10T00:24:32;100919.66;;;8.73;69.95
72465;BME280;60471;52.150;4.508;2023-01-10T00:26:59;100939.22;;;8.87;69.49
72465;BME280;60471;52.150;4.508;2023-01-10T00:29:27;100953.66;;;8.77;69.82
72465;BME280;60471;52.150;4.508;2023-01-10T00:31:56;100947.25;;;8.84;69.43
72465;BME280;60471;52.150;4.508;2023-01-10T00:34:23;100952.28;;;8.90;69.18
72465;BME280;60471;52.150;4.508;2023-01-10T00:36:49;100950.97;;;9.00;68.85
72465;BME280;60471;52.150;4.508;2023-01-10T00:39:15;100953.56;;;9.02;68.99
72465;BME280;60471;52.150;4.508;2023-01-10T00:41:44;100953.63;;;9.00;69.34
72465;BME280;60471;52.150;4.508;2023-01-10T00:44:29;100963.00;;;9.08;69.04
72465;BME280;60471;52.150;4.508;2023-01-10T00:46:55;100965.19;;;8.96;69.79
72465;BME280;60471;52.150;4.508;2023-01-10T00:49:22;100958.41;;;8.91;69.78
72465;BME280;60471;52.150;4.508;2023-01-10T00:51:48;100971.13;;;8.80;70.40
72465;BME280;60471;52.150;4.508;2023-01-10T00:54:14;100959.19;;;8.93;70.27
72465;BME280;60471;52.150;4.508;2023-01-10T00:56:40;100952.75;;;9.00;69.85
72465;BME280;60471;52.150;4.508;2023-01-10T00:59:07;100968.22;;;8.86;70.50
72465;BME280;60471;52.150;4.508;2023-01-10T01:01:34;100968.03;;;8.68;71.07
72465;BME280;60471;52.150;4.508;2023-01-10T01:04:00;100962.38;;;8.79;70.74
72465;BME280;60471;52.150;4.508;2023-01-10T01:06:26;100968.09;;;8.89;70.75
72465;BME280;60471;52.150;4.508;2023-01-10T01:08:53;100972.78;;;8.82;70.57
72465;BME280;60471;52.150;4.508;2023-01-10T01:11:19;100975.63;;;8.76;71.16
72465;BME280;60471;52.150;4.508;2023-01-10T01:13:45;100982.91;;;8.69;71.58
72465;BME280;60471;52.150;4.508;2023-01-10T01:16:11;100984.97;;;8.61;71.62
72465;BME280;60471;52.150;4.508;2023-01-10T01:18:38;100985.56;;;8.68;71.45
72465;BME280;60471;52.150;4.508;2023-01-10T01:21:04;100991.19;;;8.59;71.90
72465;BME280;60471;52.150;4.508;2023-01-10T01:23:32;100977.41;;;8.76;70.95
72465;BME280;60471;52.150;4.508;2023-01-10T01:26:00;101023.09;;;8.96;70.15
72465;BME280;60471;52.150;4.508;2023-01-10T01:28:27;101010.13;;;8.92;70.00
72465;BME280;60471;52.150;4.508;2023-01-10T01:30:53;101021.31;;;8.74;70.63
72465;BME280;60471;52.150;4.508;2023-01-10T01:33:19;101024.22;;;8.66;70.81
72465;BME280;60471;52.150;4.508;2023-01-10T01:35:47;101008.19;;;8.74;70.80
72465;BME280;60471;52.150;4.508;2023-01-10T01:38:14;101024.47;;;8.83;70.86
72465;BME280;60471;52.150;4.508;2023-01-10T01:40:41;101021.25;;;8.98;70.02
72465;BME280;60471;52.150;4.508;2023-01-10T01:43:22;101021.25;;;8.98;70.14
72465;BME280;60471;52.150;4.508;2023-01-10T01:45:51;101015.75;;;9.05;69.93
72465;BME280;60471;52.150;4.508;2023-01-10T01:51:20;101026.75;;;8.92;70.19
72465;BME280;60471;52.150;4.508;2023-01-10T01:53:57;101041.34;;;9.01;70.08
72465;BME280;60471;52.150;4.508;2023-01-10T01:56:52;101039.34;;;8.84;70.99
72465;BME280;60471;52.150;4.508;2023-01-10T01:59:26;101046.22;;;9.12;70.13
72465;BME280;60471;52.150;4.508;2023-01-10T02:02:00;101043.19;;;9.21;69.75
72465;BME280;60471;52.150;4.508;2023-01-10T02:04:41;101048.41;;;8.99;70.75
72465;BME280;60471;52.150;4.508;2023-01-10T02:07:16;101054.94;;;8.89;71.09
72465;BME280;60471;52.150;4.508;2023-01-10T02:09:53;101043.41;;;8.93;70.70
72465;BME280;60471;52.150;4.508;2023-01-10T02:12:23;101050.13;;;8.77;70.95
72465;BME280;60471;52.150;4.508;2023-01-10T02:14:52;101052.03;;;8.96;70.19
72465;BME280;60471;52.150;4.508;2023-01-10T02:17:19;101056.03;;;8.83;70.58
72465;BME280;60471;52.150;4.508;2023-01-10T02:20:04;101059.47;;;8.85;70.73
72465;BME280;60471;52.150;4.508;2023-01-10T02:42:57;101106.78;;;8.87;71.08
72465;BME280;60471;52.150;4.508;2023-01-10T02:45:38;101065.25;;;8.95;70.90
72465;BME280;60471;52.150;4.508;2023-01-10T02:48:06;101095.66;;;9.04;70.98
72465;BME280;60471;52.150;4.508;2023-01-10T02:53:22;101090.53;;;8.99;71.52
72465;BME280;60471;52.150;4.508;2023-01-10T03:07:43;101089.53;;;8.55;73.08
72465;BME280;60471;52.150;4.508;2023-01-10T03:13:00;101093.25;;;8.49;72.75
72465;BME280;60471;52.150;4.508;2023-01-10T03:15:36;101088.47;;;8.60;72.11
72465;BME280;60471;52.150;4.508;2023-01-10T03:18:11;101091.50;;;8.73;71.92
72465;BME280;60471;52.150;4.508;2023-01-10T03:20:44;101095.31;;;8.64;72.07
72465;BME280;60471;52.150;4.508;2023-01-10T03:23:14;101119.63;;;8.46;72.75
72465;BME280;60471;52.150;4.508;2023-01-10T03:25:45;101120.56;;;8.70;71.92
72465;BME280;60471;52.150;4.508;2023-01-10T03:28:19;101100.97;;;8.54;72.71
72465;BME280;60471;52.150;4.508;2023-01-10T03:31:20;101111.22;;;8.36;73.20
72465;BME280;60471;52.150;4.508;2023-01-10T03:33:50;101129.63;;;8.36;73.15
72465;BME280;60471;52.150;4.508;2023-01-10T03:39:24;101156.06;;;8.30;73.40
72465;BME280;60471;52.150;4.508;2023-01-10T03:42:42;101137.34;;;8.66;71.85
72465;BME280;60471;52.150;4.508;2023-01-10T03:45:47;101133.00;;;8.40;72.69
72465;BME280;60471;52.150;4.508;2023-01-10T03:48:20;101187.13;;;8.46;72.50
72465;BME280;60471;52.150;4.508;2023-01-10T03:50:52;101135.19;;;8.52;72.24
72465;BME280;60471;52.150;4.508;2023-01-10T03:53:18;101140.63;;;8.48;72.46
72465;BME280;60471;52.150;4.508;2023-01-10T03:55:45;101139.81;;;8.46;72.64
72465;BME280;60471;52.150;4.508;2023-01-10T03:58:11;101159.13;;;8.45;72.73
72465;BME280;60471;52.150;4.508;2023-01-10T04:00:37;101145.13;;;8.44;72.97
72465;BME280;60471;52.150;4.508;2023-01-10T04:03:05;101155.06;;;8.36;73.07
72465;BME280;60471;52.150;4.508;2023-01-10T04:05:31;101156.19;;;8.27;73.38
72465;BME280;60471;52.150;4.508;2023-01-10T04:07:57;101158.00;;;8.25;73.79
72465;BME280;60471;52.150;4.508;2023-01-10T04:10:23;101155.47;;;8.22;73.72
72465;BME280;60471;52.150;4.508;2023-01-10T04:12:52;101167.81;;;8.20;74.00
72465;BME280;60471;52.150;4.508;2023-01-10T04:15:18;101179.41;;;8.14;74.16
72465;BME280;60471;52.150;4.508;2023-01-10T04:17:44;101162.94;;;8.08;74.56
72465;BME280;60471;52.150;4.508;2023-01-10T04:20:10;101179.81;;;8.01;74.72
72465;BME280;60471;52.150;4.508;2023-01-10T04:22:37;101182.88;;;8.15;74.40
72465;BME280;60471;52.150;4.508;2023-01-10T04:25:03;101185.97;;;8.28;73.64
72465;BME280;60471;52.150;4.508;2023-01-10T04:27:30;101187.97;;;8.20;74.16
72465;BME280;60471;52.150;4.508;2023-01-10T04:29:56;101180.59;;;8.04;74.58
72465;BME280;60471;52.150;4.508;2023-01-10T04:32:22;101187.88;;;8.23;73.63
72465;BME280;60471;52.150;4.508;2023-01-10T04:34:48;101179.53;;;8.10;74.10
72465;BME280;60471;52.150;4.508;2023-01-10T04:37:14;101175.13;;;8.10;74.15
72465;BME280;60471;52.150;4.508;2023-01-10T04:39:41;101173.00;;;7.95;74.67
72465;BME280;60471;52.150;4.508;2023-01-10T04:42:07;101182.38;;;8.02;74.56
72465;BME280;60471;52.150;4.508;2023-01-10T04:44:33;101180.94;;;8.20;74.00
72465;BME280;60471;52.150;4.508;2023-01-10T04:46:59;101183.41;;;8.25;73.90
72465;BME280;60471;52.150;4.508;2023-01-10T04:49:25;101192.66;;;8.10;74.34
72465;BME280;60471;52.150;4.508;2023-01-10T04:51:51;101206.59;;;8.12;74.34
72465;BME280;60471;52.150;4.508;2023-01-10T04:54:21;101217.41;;;8.31;73.57
72465;BME280;60471;52.150;4.508;2023-01-10T04:56:48;101221.97;;;8.26;73.77
72465;BME280;60471;52.150;4.508;2023-01-10T04:59:14;101223.81;;;8.22;73.84
72465;BME280;60471;52.150;4.508;2023-01-10T05:01:41;101231.69;;;8.22;73.81
72465;BME280;60471;52.150;4.508;2023-01-10T05:04:07;101219.63;;;8.17;74.08
72465;BME280;60471;52.150;4.508;2023-01-10T05:06:34;101229.50;;;8.08;74.46
72465;BME280;60471;52.150;4.508;2023-01-10T05:09:02;101224.53;;;7.99;74.81
72465;BME280;60471;52.150;4.508;2023-01-10T05:11:28;101222.53;;;8.07;74.77
72465;BME280;60471;52.150;4.508;2023-01-10T05:13:54;101215.09;;;7.94;75.15
72465;BME280;60471;52.150;4.508;2023-01-10T05:16:20;101215.91;;;7.96;75.39
72465;BME280;60471;52.150;4.508;2023-01-10T05:18:46;101230.06;;;7.90;75.72
72465;BME280;60471;52.150;4.508;2023-01-10T05:21:13;101230.94;;;7.91;75.87
72465;BME280;60471;52.150;4.508;2023-01-10T05:23:40;101241.38;;;7.92;75.73
72465;BME280;60471;52.150;4.508;2023-01-10T05:28:37;101241.06;;;7.75;76.72
72465;BME280;60471;52.150;4.508;2023-01-10T05:31:08;101242.50;;;8.13;75.24
72465;BME280;60471;52.150;4.508;2023-01-10T05:33:37;101249.28;;;7.92;75.92
72465;BME280;60471;52.150;4.508;2023-01-10T05:36:05;101248.25;;;7.98;75.95
72465;BME280;60471;52.150;4.508;2023-01-10T05:38:32;101248.94;;;8.03;75.45
72465;BME280;60471;52.150;4.508;2023-01-10T05:40:59;101244.47;;;8.06;75.26
72465;BME280;60471;52.150;4.508;2023-01-10T05:43:26;101261.38;;;7.98;75.55
72465;BME280;60471;52.150;4.508;2023-01-10T05:45:53;101267.50;;;7.98;76.30
72465;BME280;60471;52.150;4.508;2023-01-10T05:48:19;101260.63;;;7.94;76.00
72465;BME280;60471;52.150;4.508;2023-01-10T05:50:48;101263.63;;;7.80;76.76
72465;BME280;60471;52.150;4.508;2023-01-10T05:53:15;101265.88;;;7.94;76.57
72465;BME280;60471;52.150;4.508;2023-01-10T05:55:41;101272.56;;;8.04;76.16
72465;BME280;60471;52.150;4.508;2023-01-10T05:58:08;101286.53;;;8.06;76.24
72465;BME280;60471;52.150;4.508;2023-01-10T06:00:37;101278.28;;;7.89;76.84
72465;BME280;60471;52.150;4.508;2023-01-10T06:03:05;101284.59;;;7.83;77.30
72465;BME280;60471;52.150;4.508;2023-01-10T06:05:31;101287.47;;;8.04;76.38
72465;BME280;60471;52.150;4.508;2023-01-10T06:07:57;101273.81;;;7.91;76.89
72465;BME280;60471;52.150;4.508;2023-01-10T06:10:24;101271.03;;;7.97;76.61
72465;BME280;60471;52.150;4.508;2023-01-10T06:12:50;101273.94;;;7.88;77.00
72465;BME280;60471;52.150;4.508;2023-01-10T06:15:16;101274.06;;;7.83;77.37
72465;BME280;60471;52.150;4.508;2023-01-10T06:17:42;101264.69;;;7.75;77.64
72465;BME280;60471;52.150;4.508;2023-01-10T06:20:13;101266.47;;;7.74;77.78
72465;BME280;60471;52.150;4.508;2023-01-10T06:22:40;101270.06;;;7.70;78.08
72465;BME280;60471;52.150;4.508;2023-01-10T06:25:11;101278.91;;;7.68;78.02
72465;BME280;60471;52.150;4.508;2023-01-10T06:27:40;101285.81;;;7.72;77.93
72465;BME280;60471;52.150;4.508;2023-01-10T06:30:08;101282.44;;;7.67;78.26
72465;BME280;60471;52.150;4.508;2023-01-10T06:32:36;101285.72;;;7.75;77.80
72465;BME280;60471;52.150;4.508;2023-01-10T06:35:03;101290.00;;;7.77;77.75
72465;BME280;60471;52.150;4.508;2023-01-10T06:37:30;101299.81;;;7.72;77.75
72465;BME280;60471;52.150;4.508;2023-01-10T06:39:57;101303.06;;;7.49;78.55
72465;BME280;60471;52.150;4.508;2023-01-10T06:42:23;101304.59;;;7.56;78.30
72465;BME280;60471;52.150;4.508;2023-01-10T06:44:49;101300.31;;;7.54;78.06
72465;BME280;60471;52.150;4.508;2023-01-10T06:47:15;101308.22;;;7.52;77.80
72465;BME280;60471;52.150;4.508;2023-01-10T06:49:42;101312.72;;;7.49;77.79
72465;BME280;60471;52.150;4.508;2023-01-10T06:52:08;101326.09;;;7.40;78.67
72465;BME280;60471;52.150;4.508;2023-01-10T06:54:34;101324.38;;;7.39;78.41
72465;BME280;60471;52.150;4.508;2023-01-10T06:57:00;101331.91;;;7.51;77.85
72465;BME280;60471;52.150;4.508;2023-01-10T06:59:26;101339.03;;;7.46;78.15
72465;BME280;60471;52.150;4.508;2023-01-10T07:01:53;101344.03;;;7.55;77.78
72465;BME280;60471;52.150;4.508;2023-01-10T07:04:19;101346.97;;;7.44;78.51
72465;BME280;60471;52.150;4.508;2023-01-10T07:06:45;101343.47;;;7.44;78.70
72465;BME280;60471;52.150;4.508;2023-01-10T07:09:11;101361.84;;;7.44;78.52
72465;BME280;60471;52.150;4.508;2023-01-10T07:11:37;101365.25;;;7.47;78.71
72465;BME280;60471;52.150;4.508;2023-01-10T07:14:03;101359.31;;;7.41;78.47
72465;BME280;60471;52.150;4.508;2023-01-10T07:16:30;101359.72;;;7.58;77.78
72465;BME280;60471;52.150;4.508;2023-01-10T07:18:56;101364.19;;;7.54;77.63
72465;BME280;60471;52.150;4.508;2023-01-10T07:21:23;101362.94;;;7.68;77.12
72465;BME280;60471;52.150;4.508;2023-01-10T07:23:50;101366.72;;;7.57;77.28
72465;BME280;60471;52.150;4.508;2023-01-10T07:26:17;101369.31;;;7.59;77.32
72465;BME280;60471;52.150;4.508;2023-01-10T07:28:47;101376.75;;;7.43;77.63
72465;BME280;60471;52.150;4.508;2023-01-10T07:31:18;101385.03;;;7.28;78.38
72465;BME280;60471;52.150;4.508;2023-01-10T07:33:47;101379.84;;;7.25;78.53
72465;BME280;60471;52.150;4.508;2023-01-10T07:36:13;101372.69;;;7.32;78.26
72465;BME280;60471;52.150;4.508;2023-01-10T07:38:40;101373.25;;;7.43;78.19
72465;BME280;60471;52.150;4.508;2023-01-10T07:41:06;101371.63;;;7.37;77.96
72465;BME280;60471;52.150;4.508;2023-01-10T07:43:33;101373.06;;;7.50;78.29
72465;BME280;60471;52.150;4.508;2023-01-10T07:46:02;101372.25;;;7.47;78.38
72465;BME280;60471;52.150;4.508;2023-01-10T07:48:30;101372.84;;;7.58;78.40
72465;BME280;60471;52.150;4.508;2023-01-10T07:50:57;101365.81;;;7.60;78.68
72465;BME280;60471;52.150;4.508;2023-01-10T07:53:26;101360.13;;;7.43;79.34
72465;BME280;60471;52.150;4.508;2023-01-10T07:55:58;101379.50;;;7.37;79.44
72465;BME280;60471;52.150;4.508;2023-01-10T07:58:26;101386.44;;;7.41;79.59
72465;BME280;60471;52.150;4.508;2023-01-10T08:00:57;101367.16;;;7.42;79.50
72465;BME280;60471;52.150;4.508;2023-01-10T08:03:24;101363.56;;;7.45;79.05
72465;BME280;60471;52.150;4.508;2023-01-10T08:06:00;101372.31;;;7.45;79.43
72465;BME280;60471;52.150;4.508;2023-01-10T08:08:32;101379.28;;;7.46;79.40
72465;BME280;60471;52.150;4.508;2023-01-10T08:10:59;101379.19;;;7.51;79.30
72465;BME280;60471;52.150;4.508;2023-01-10T08:13:30;101393.34;;;7.44;79.64
72465;BME280;60471;52.150;4.508;2023-01-10T08:15:57;101397.66;;;7.46;79.46
72465;BME280;60471;52.150;4.508;2023-01-10T08:18:24;101393.41;;;7.42;79.89
72465;BME280;60471;52.150;4.508;2023-01-10T08:20:52;101378.38;;;7.49;79.72
72465;BME280;60471;52.150;4.508;2023-01-10T08:23:20;101391.50;;;7.49;79.58
72465;BME280;60471;52.150;4.508;2023-01-10T08:25:46;101395.59;;;7.25;80.59
72465;BME280;60471;52.150;4.508;2023-01-10T08:28:13;101380.22;;;7.10;81.11
72465;BME280;60471;52.150;4.508;2023-01-10T08:30:40;101389.59;;;7.20;80.90
72465;BME280;60471;52.150;4.508;2023-01-10T08:33:10;101381.91;;;7.12;80.94
72465;BME280;60471;52.150;4.508;2023-01-10T08:35:38;101372.28;;;7.13;81.03
72465;BME280;60471;52.150;4.508;2023-01-10T08:38:07;101373.81;;;7.21;80.51
72465;BME280;60471;52.150;4.508;2023-01-10T08:40:34;101378.34;;;7.15;80.37
72465;BME280;60471;52.150;4.508;2023-01-10T08:43:05;101373.03;;;7.18;80.53
72465;BME280;60471;52.150;4.508;2023-01-10T08:45:34;101379.56;;;7.02;80.75
72465;BME280;60471;52.150;4.508;2023-01-10T08:48:03;101380.16;;;7.13;80.19
72465;BME280;60471;52.150;4.508;2023-01-10T08:50:30;101377.72;;;7.05;80.17
72465;BME280;60471;52.150;4.508;2023-01-10T08:52:57;101387.34;;;7.05;80.25
72465;BME280;60471;52.150;4.508;2023-01-10T08:55:26;101384.94;;;6.97;80.29
72465;BME280;60471;52.150;4.508;2023-01-10T08:57:53;101364.88;;;6.93;80.39
72465;BME280;60471;52.150;4.508;2023-01-10T09:00:19;101371.59;;;7.06;80.14
72465;BME280;60471;52.150;4.508;2023-01-10T09:02:46;101377.09;;;6.94;80.41
72465;BME280;60471;52.150;4.508;2023-01-10T09:05:12;101363.84;;;7.00;80.19
72465;BME280;60471;52.150;4.508;2023-01-10T09:07:38;101360.19;;;7.07;79.85
72465;BME280;60471;52.150;4.508;2023-01-10T09:10:07;101362.88;;;7.04;80.14
72465;BME280;60471;52.150;4.508;2023-01-10T09:12:34;101355.59;;;7.15;79.72
72465;BME280;60471;52.150;4.508;2023-01-10T09:15:19;101352.66;;;7.28;78.81
72465;BME280;60471;52.150;4.508;2023-01-10T09:17:47;101351.19;;;7.17;79.52
72465;BME280;60471;52.150;4.508;2023-01-10T09:20:15;101336.16;;;7.22;79.21
72465;BME280;60471;52.150;4.508;2023-01-10T09:22:41;101343.91;;;7.27;79.01
72465;BME280;60471;52.150;4.508;2023-01-10T09:25:08;101345.25;;;7.09;79.64
72465;BME280;60471;52.150;4.508;2023-01-10T09:27:34;101335.66;;;7.08;80.30
72465;BME280;60471;52.150;4.508;2023-01-10T09:30:00;101345.81;;;7.22;79.83
72465;BME280;60471;52.150;4.508;2023-01-10T09:32:26;101341.84;;;7.40;78.95
72465;BME280;60471;52.150;4.508;2023-01-10T09:34:53;101355.44;;;7.21;79.61
72465;BME280;60471;52.150;4.508;2023-01-10T09:37:19;101363.34;;;7.20;79.62
72465;BME280;60471;52.150;4.508;2023-01-10T09:39:45;101351.97;;;7.21;79.72
72465;BME280;60471;52.150;4.508;2023-01-10T09:42:26;101366.81;;;7.22;79.36
72465;BME280;60471;52.150;4.508;2023-01-10T09:48:02;101371.31;;;7.17;79.48
72465;BME280;60471;52.150;4.508;2023-01-10T09:51:50;101359.97;;;7.15;79.46
72465;BME280;60471;52.150;4.508;2023-01-10T09:54:08;101349.16;;;7.29;79.46
72465;BME280;60471;52.150;4.508;2023-01-10T09:56:43;101355.00;;;7.38;78.82
72465;BME280;60471;52.150;4.508;2023-01-10T09:59:19;101355.03;;;7.37;78.97
72465;BME280;60471;52.150;4.508;2023-01-10T10:01:54;101342.03;;;7.32;78.68
72465;BME280;60471;52.150;4.508;2023-01-10T10:04:29;101344.09;;;7.21;78.93
72465;BME280;60471;52.150;4.508;2023-01-10T10:07:01;101334.22;;;7.31;78.52
72465;BME280;60471;52.150;4.508;2023-01-10T10:09:30;101337.06;;;7.21;78.97
72465;BME280;60471;52.150;4.508;2023-01-10T10:21:07;101342.72;;;7.06;78.44
72465;BME280;60471;52.150;4.508;2023-01-10T10:23:55;101344.31;;;7.12;77.86
72465;BME280;60471;52.150;4.508;2023-01-10T10:26:31;101336.66;;;7.03;78.09
72465;BME280;60471;52.150;4.508;2023-01-10T10:32:57;101317.56;;;6.97;78.22
72465;BME280;60471;52.150;4.508;2023-01-10T10:38:16;101332.28;;;7.03;77.31
72465;BME280;60471;52.150;4.508;2023-01-10T10:40:47;101304.25;;;7.05;77.25
72465;BME280;60471;52.150;4.508;2023-01-10T10:43:20;101301.94;;;7.25;76.32
72465;BME280;60471;52.150;4.508;2023-01-10T10:45:56;101294.88;;;7.29;76.32
72465;BME280;60471;52.150;4.508;2023-01-10T10:48:30;101297.56;;;7.28;76.75
72465;BME280;60471;52.150;4.508;2023-01-10T10:53:28;101287.91;;;7.28;77.35
72465;BME280;60471;52.150;4.508;2023-01-10T10:55:58;101288.06;;;7.22;76.68
72465;BME280;60471;52.150;4.508;2023-01-10T10:58:27;101294.22;;;7.21;76.63
72465;BME280;60471;52.150;4.508;2023-01-10T11:00:55;101283.19;;;7.08;76.67
72465;BME280;60471;52.150;4.508;2023-01-10T11:03:30;101279.66;;;7.09;76.86
72465;BME280;60471;52.150;4.508;2023-01-10T11:06:06;101277.72;;;7.16;76.48
72465;BME280;60471;52.150;4.508;2023-01-10T11:08:35;101265.53;;;7.13;76.76
72465;BME280;60471;52.150;4.508;2023-01-10T11:13:57;101265.91;;;7.32;75.77
72465;BME280;60471;52.150;4.508;2023-01-10T11:16:34;101255.06;;;7.44;75.90
72465;BME280;60471;52.150;4.508;2023-01-10T11:19:22;101264.44;;;7.22;76.46
72465;BME280;60471;52.150;4.508;2023-01-10T11:22:01;101252.28;;;7.19;76.51
72465;BME280;60471;52.150;4.508;2023-01-10T11:24:34;101234.56;;;7.26;76.48
72465;BME280;60471;52.150;4.508;2023-01-10T11:27:25;101243.69;;;7.13;76.86
72465;BME280;60471;52.150;4.508;2023-01-10T11:29:58;101250.63;;;7.15;76.92
72465;BME280;60471;52.150;4.508;2023-01-10T11:32:38;101237.72;;;7.08;76.79
72465;BME280;60471;52.150;4.508;2023-01-10T11:35:20;101251.94;;;6.99;77.16
72465;BME280;60471;52.150;4.508;2023-01-10T11:38:05;101241.19;;;7.08;76.88
72465;BME280;60471;52.150;4.508;2023-01-10T11:40:54;101232.38;;;7.11;76.85
72465;BME280;60471;52.150;4.508;2023-01-10T11:43:38;101218.53;;;7.06;77.20
72465;BME280;60471;52.150;4.508;2023-01-10T11:46:19;101218.31;;;7.13;77.34
72465;BME280;60471;52.150;4.508;2023-01-10T11:49:02;101218.16;;;7.19;77.04
72465;BME280;60471;52.150;4.508;2023-01-10T11:51:45;101205.13;;;7.16;76.95
72465;BME280;60471;52.150;4.508;2023-01-10T11:54:19;101193.53;;;7.23;77.05
72465;BME280;60471;52.150;4.508;2023-01-10T11:59:55;101187.31;;;7.28;76.98
72465;BME280;60471;52.150;4.508;2023-01-10T12:02:35;101194.44;;;7.22;77.26
72465;BME280;60471;52.150;4.508;2023-01-10T12:05:08;101179.28;;;7.32;76.83
72465;BME280;60471;52.150;4.508;2023-01-10T12:07:57;101174.47;;;7.46;76.23
72465;BME280;60471;52.150;4.508;2023-01-10T12:10:33;101171.91;;;7.45;76.25
72465;BME280;60471;52.150;4.508;2023-01-10T12:13:14;101167.53;;;7.45;76.20
72465;BME280;60471;52.150;4.508;2023-01-10T12:15:41;101176.03;;;7.53;76.13
72465;BME280;60471;52.150;4.508;2023-01-10T12:18:09;101153.31;;;7.52;76.06
72465;BME280;60471;52.150;4.508;2023-01-10T12:20:55;101160.97;;;7.60;75.68
72465;BME280;60471;52.150;4.508;2023-01-10T12:23:26;101155.13;;;7.78;75.07
72465;BME280;60471;52.150;4.508;2023-01-10T12:25:55;101164.44;;;7.61;75.59
72465;BME280;60471;52.150;4.508;2023-01-10T12:28:28;101139.31;;;7.52;75.77
72465;BME280;60471;52.150;4.508;2023-01-10T12:30:58;101136.69;;;7.52;76.31
72465;BME280;60471;52.150;4.508;2023-01-10T12:33:32;101144.91;;;7.69;75.58
72465;BME280;60471;52.150;4.508;2023-01-10T12:36:12;101144.31;;;7.60;75.90
72465;BME280;60471;52.150;4.508;2023-01-10T12:38:45;101128.97;;;7.75;75.51
72465;BME280;60471;52.150;4.508;2023-01-10T12:44:52;101119.66;;;7.65;74.95
72465;BME280;60471;52.150;4.508;2023-01-10T12:47:34;101126.66;;;7.65;75.17
72465;BME280;60471;52.150;4.508;2023-01-10T12:53:23;101140.66;;;7.65;75.34
72465;BME280;60471;52.150;4.508;2023-01-10T12:55:58;101118.75;;;7.66;75.24
72465;BME280;60471;52.150;4.508;2023-01-10T12:58:37;101103.97;;;7.90;74.55
72465;BME280;60471;52.150;4.508;2023-01-10T13:01:05;101105.84;;;7.59;75.48
72465;BME280;60471;52.150;4.508;2023-01-10T13:03:35;101132.19;;;7.55;76.04
72465;BME280;60471;52.150;4.508;2023-01-10T13:06:02;101100.84;;;7.51;76.46
72465;BME280;60471;52.150;4.508;2023-01-10T13:08:32;101093.25;;;7.42;77.60
72465;BME280;60471;52.150;4.508;2023-01-10T13:11:01;101080.94;;;7.44;77.77
72465;BME280;60471;52.150;4.508;2023-01-10T13:21:35;101070.44;;;7.14;81.00
72465;BME280;60471;52.150;4.508;2023-01-10T13:24:23;101047.22;;;7.02;82.29
72465;BME280;60471;52.150;4.508;2023-01-10T13:27:01;101075.47;;;6.92;82.90
72465;BME280;60471;52.150;4.508;2023-01-10T13:29:40;101063.38;;;6.88;83.47
72465;BME280;60471;52.150;4.508;2023-01-10T13:32:26;101035.38;;;6.89;83.69
72465;BME280;60471;52.150;4.508;2023-01-10T13:35:07;101019.78;;;6.84;83.99
72465;BME280;60471;52.150;4.508;2023-01-10T13:37:37;101029.75;;;6.72;84.19
72465;BME280;60471;52.150;4.508;2023-01-10T13:40:06;101000.81;;;6.75;84.75
72465;BME280;60471;52.150;4.508;2023-01-10T13:42:42;101004.16;;;6.80;85.03
72465;BME280;60471;52.150;4.508;2023-01-10T13:45:28;100997.34;;;6.74;85.15
72465;BME280;60471;52.150;4.508;2023-01-10T13:47:58;100988.56;;;6.75;84.72
72465;BME280;60471;52.150;4.508;2023-01-10T14:01:40;100982.41;;;6.76;85.74
72465;BME280;60471;52.150;4.508;2023-01-10T14:04:32;100965.25;;;6.66;85.93
72465;BME280;60471;52.150;4.508;2023-01-10T14:07:11;100956.63;;;6.62;86.70
72465;BME280;60471;52.150;4.508;2023-01-10T14:09:45;100926.19;;;6.57;86.61
72465;BME280;60471;52.150;4.508;2023-01-10T14:12:27;100966.31;;;6.59;86.45
72465;BME280;60471;52.150;4.508;2023-01-10T14:18:16;100908.75;;;6.56;87.02
72465;BME280;60471;52.150;4.508;2023-01-10T14:20:58;100883.06;;;6.67;87.38
72465;BME280;60471;52.150;4.508;2023-01-10T14:23:35;100876.28;;;6.60;88.00
72465;BME280;60471;52.150;4.508;2023-01-10T14:26:16;100862.34;;;6.58;88.09
72465;BME280;60471;52.150;4.508;2023-01-10T14:28:49;100861.50;;;6.57;87.77
72465;BME280;60471;52.150;4.508;2023-01-10T14:31:19;100881.00;;;6.49;87.90
72465;BME280;60471;52.150;4.508;2023-01-10T14:33:48;100859.63;;;6.62;88.41
72465;BME280;60471;52.150;4.508;2023-01-10T14:36:20;100859.84;;;6.55;88.36
72465;BME280;60471;52.150;4.508;2023-01-10T14:38:54;100856.47;;;6.51;88.42
72465;BME280;60471;52.150;4.508;2023-01-10T14:41:37;100845.72;;;6.59;88.72
72465;BME280;60471;52.150;4.508;2023-01-10T14:44:30;100813.56;;;6.54;88.69
72465;BME280;60471;52.150;4.508;2023-01-10T14:47:02;100816.88;;;6.59;89.08
72465;BME280;60471;52.150;4.508;2023-01-10T14:49:33;100819.00;;;6.48;88.91
72465;BME280;60471;52.150;4.508;2023-01-10T14:52:18;100837.69;;;6.65;88.75
72465;BME280;60471;52.150;4.508;2023-01-10T14:55:12;100839.72;;;6.55;89.18
72465;BME280;60471;52.150;4.508;2023-01-10T14:57:55;100808.44;;;6.49;89.10
72465;BME280;60471;52.150;4.508;2023-01-10T15:00:30;100803.25;;;6.48;89.64
72465;BME280;60471;52.150;4.508;2023-01-10T15:02:59;100803.88;;;6.56;89.51
72465;BME280;60471;52.150;4.508;2023-01-10T15:05:32;100829.69;;;6.42;89.53